createdAt,value
2023-05-19T00:01:43.940Z,34.00
2023-05-19T00:04:11.724Z,33.50
2023-05-19T00:06:39.090Z,34.00
2023-05-19T00:09:10.482Z,34.00
2023-05-19T00:11:39.642Z,33.50
2023-05-19T00:14:08.990Z,34.00
2023-05-19T00:16:37.022Z,34.00
2023-05-19T00:19:06.052Z,33.75
2023-05-19T00:21:33.080Z,34.00
2023-05-19T00:23:59.970Z,34.25
2023-05-19T00:26:27.644Z,34.50
2023-05-19T00:28:59.961Z,35.00
2023-05-19T00:31:26.986Z,34.50
2023-05-19T00:33:55.256Z,34.00
2023-05-19T00:36:22.255Z,34.00
2023-05-19T00:38:49.589Z,33.75
2023-05-19T00:41:16.718Z,34.00
2023-05-19T00:43:43.768Z,33.00
2023-05-19T00:46:10.895Z,32.50
2023-05-19T00:48:37.869Z,33.00
2023-05-19T00:51:05.712Z,33.75
2023-05-19T00:53:34.286Z,33.00
2023-05-19T00:56:03.093Z,33.00
2023-05-19T00:58:31.690Z,33.00
2023-05-19T01:01:00.292Z,32.25
2023-05-19T01:03:27.395Z,33.00
2023-05-19T01:05:54.503Z,33.00
2023-05-19T01:08:21.589Z,31.00
2023-05-19T01:10:48.650Z,31.50
2023-05-19T01:13:17.048Z,33.00
2023-05-19T01:16:06.159Z,34.00
2023-05-19T01:19:00.139Z,34.00
2023-05-19T01:21:48.633Z,34.00
2023-05-19T01:24:57.354Z,34.00
2023-05-19T01:28:12.405Z,34.00
2023-05-19T01:30:41.618Z,34.00
2023-05-19T01:33:14.820Z,33.00
2023-05-19T01:35:43.629Z,33.00
2023-05-19T01:38:12.137Z,32.00
2023-05-19T01:40:41.644Z,33.00
2023-05-19T01:43:13.672Z,33.00
2023-05-19T01:45:41.067Z,32.50
2023-05-19T01:48:10.807Z,33.00
2023-05-19T01:50:39.779Z,34.00
2023-05-19T01:53:06.823Z,33.00
2023-05-19T01:55:42.317Z,33.00
2023-05-19T01:58:36.706Z,33.50
2023-05-19T02:01:15.970Z,34.00
2023-05-19T02:04:19.513Z,34.00
2023-05-19T02:06:55.363Z,34.25
2023-05-19T02:09:32.846Z,35.00
2023-05-19T02:12:24.301Z,35.00
2023-05-19T02:15:05.814Z,34.00
2023-05-19T02:17:38.157Z,34.00
2023-05-19T02:20:06.487Z,34.75
2023-05-19T02:22:33.364Z,36.00
2023-05-19T02:25:00.474Z,35.00
2023-05-19T02:27:27.718Z,36.00
2023-05-19T02:29:54.734Z,36.00
2023-05-19T02:32:21.658Z,35.50
2023-05-19T02:34:49.077Z,35.75
2023-05-19T02:37:16.613Z,35.00
2023-05-19T02:39:43.919Z,34.00
2023-05-19T02:42:11.326Z,35.00
2023-05-19T02:44:38.413Z,34.00
2023-05-19T02:47:05.335Z,34.00
2023-05-19T02:49:32.953Z,33.50
2023-05-19T02:52:00.781Z,33.50
2023-05-19T02:54:27.786Z,33.00
2023-05-19T02:56:54.726Z,33.00
2023-05-19T02:59:21.935Z,34.00
2023-05-19T03:01:49.518Z,34.25
2023-05-19T03:04:16.693Z,36.00
2023-05-19T03:06:43.677Z,35.00
2023-05-19T03:09:10.659Z,35.25
2023-05-19T03:11:37.556Z,36.00
2023-05-19T03:14:04.580Z,37.00
2023-05-19T03:16:31.616Z,37.00
2023-05-19T03:18:58.785Z,38.00
2023-05-19T03:21:25.861Z,38.00
2023-05-19T03:23:53.433Z,38.00
2023-05-19T03:26:20.742Z,38.00
2023-05-19T03:28:47.673Z,37.00
2023-05-19T03:31:14.672Z,39.25
2023-05-19T03:33:42.007Z,42.50
2023-05-19T03:36:09.165Z,44.00
2023-05-19T03:38:38.904Z,41.00
2023-05-19T03:41:05.991Z,40.00
2023-05-19T03:43:32.951Z,40.00
2023-05-19T03:46:03.441Z,40.00
2023-05-19T03:48:48.951Z,44.50
2023-05-19T03:51:18.557Z,43.00
2023-05-19T03:53:47.251Z,43.00
2023-05-19T03:56:14.679Z,41.00
2023-05-19T03:58:41.611Z,41.50
2023-05-19T04:01:08.532Z,42.00
2023-05-19T04:03:36.003Z,41.00
2023-05-19T04:06:03.708Z,41.50
2023-05-19T04:08:32.035Z,41.00
2023-05-19T04:10:59.132Z,41.50
2023-05-19T04:13:26.186Z,41.00
2023-05-19T04:15:53.381Z,42.00
2023-05-19T04:18:20.493Z,42.00
2023-05-19T04:20:47.573Z,41.25
2023-05-19T04:23:14.540Z,43.00
2023-05-19T04:25:41.814Z,42.00
2023-05-19T04:28:08.864Z,41.00
2023-05-19T04:30:35.828Z,40.00
2023-05-19T04:33:02.927Z,41.00
2023-05-19T04:35:30.291Z,41.00
2023-05-19T04:37:59.342Z,43.00
2023-05-19T04:40:29.743Z,41.00
2023-05-19T04:42:57.382Z,41.00
2023-05-19T04:45:25.298Z,41.00
2023-05-19T04:47:54.630Z,41.00
2023-05-19T04:50:21.544Z,41.00
2023-05-19T04:52:48.691Z,41.00
2023-05-19T04:55:15.727Z,39.00
2023-05-19T04:57:42.817Z,39.00
2023-05-19T05:00:10.804Z,39.00
2023-05-19T05:02:46.034Z,39.00
2023-05-19T05:05:13.808Z,38.00
2023-05-19T05:07:41.024Z,38.00
2023-05-19T05:10:08.889Z,37.00
2023-05-19T05:12:36.221Z,37.00
2023-05-19T05:15:03.976Z,36.00
2023-05-19T05:17:31.328Z,36.00
2023-05-19T05:19:58.756Z,37.00
2023-05-19T05:22:26.044Z,38.00
2023-05-19T05:24:54.075Z,37.00
2023-05-19T05:27:21.098Z,38.00
2023-05-19T05:29:48.167Z,37.00
2023-05-19T05:32:15.846Z,36.75
2023-05-19T05:34:43.774Z,37.00
2023-05-19T05:37:13.822Z,38.00
2023-05-19T05:39:42.524Z,37.00
2023-05-19T05:42:10.974Z,41.50
2023-05-19T05:44:39.532Z,53.75
2023-05-19T05:47:07.931Z,45.75
2023-05-19T05:49:36.059Z,42.00
2023-05-19T05:52:06.388Z,41.00
2023-05-19T05:54:40.572Z,39.00
2023-05-19T05:57:09.060Z,38.00
2023-05-19T05:59:35.976Z,38.00
2023-05-19T06:02:03.474Z,38.00
2023-05-19T06:04:31.492Z,37.00
2023-05-19T06:06:58.663Z,38.00
2023-05-19T06:09:26.365Z,38.75
2023-05-19T06:11:53.413Z,39.00
2023-05-19T06:14:20.770Z,38.00
2023-05-19T06:17:10.485Z,38.00
2023-05-19T06:19:37.810Z,38.00
2023-05-19T06:22:04.837Z,37.00
2023-05-19T06:24:31.933Z,37.00
2023-05-19T06:26:58.905Z,37.00
2023-05-19T06:29:25.940Z,36.25
2023-05-19T06:31:58.165Z,38.00
2023-05-19T06:34:25.426Z,36.25
2023-05-19T06:36:52.481Z,37.00
2023-05-19T06:39:20.695Z,37.00
2023-05-19T06:41:47.659Z,37.00
2023-05-19T06:44:34.613Z,36.00
2023-05-19T06:47:01.617Z,36.00
2023-05-19T06:49:28.544Z,37.00
2023-05-19T06:51:56.042Z,37.00
2023-05-19T06:54:22.996Z,38.00
2023-05-19T06:56:50.018Z,37.00
2023-05-19T06:59:17.012Z,37.00
2023-05-19T07:01:45.316Z,37.00
2023-05-19T07:04:12.555Z,41.00
2023-05-19T07:06:40.758Z,42.75
2023-05-19T07:09:09.286Z,43.00
2023-05-19T07:11:37.903Z,40.00
2023-05-19T07:14:05.419Z,40.00
2023-05-19T07:16:32.665Z,39.00
2023-05-19T07:18:59.787Z,38.00
2023-05-19T07:21:26.879Z,38.00
2023-05-19T07:23:53.788Z,38.00
2023-05-19T07:26:20.807Z,38.00
2023-05-19T07:28:47.799Z,38.00
2023-05-19T07:31:14.892Z,37.00
2023-05-19T07:33:41.933Z,37.00
2023-05-19T07:36:08.948Z,37.00
2023-05-19T07:38:36.016Z,37.50
2023-05-19T07:41:03.955Z,37.50
2023-05-19T07:43:30.926Z,37.75
2023-05-19T07:45:58.079Z,38.00
2023-05-19T07:48:25.083Z,38.00
2023-05-19T07:50:52.992Z,37.00
2023-05-19T07:53:20.716Z,37.25
2023-05-19T07:55:47.691Z,38.00
2023-05-19T07:58:15.539Z,37.00
2023-05-19T08:00:42.647Z,38.00
2023-05-19T08:03:10.370Z,37.00
2023-05-19T08:05:38.183Z,38.00
2023-05-19T08:08:23.882Z,38.75
2023-05-19T08:10:51.654Z,39.00
2023-05-19T08:13:18.642Z,39.00
2023-05-19T08:15:45.744Z,37.50
2023-05-19T08:18:12.782Z,37.00
2023-05-19T08:20:40.256Z,38.00
2023-05-19T08:23:07.209Z,37.00
2023-05-19T08:25:34.252Z,37.00
2023-05-19T08:28:01.283Z,36.50
2023-05-19T08:30:28.359Z,36.00
2023-05-19T08:32:55.523Z,36.00
2023-05-19T08:35:22.611Z,37.00
2023-05-19T08:37:49.544Z,37.00
2023-05-19T08:40:18.036Z,36.00
2023-05-19T08:42:46.020Z,36.00
2023-05-19T08:45:13.852Z,36.00
2023-05-19T08:47:46.501Z,37.00
2023-05-19T08:50:20.114Z,37.00
2023-05-19T08:52:53.057Z,37.00
2023-05-19T08:55:23.455Z,38.00
2023-05-19T08:57:51.150Z,37.50
2023-05-19T09:00:19.419Z,38.00
2023-05-19T09:02:59.798Z,37.50
2023-05-19T09:05:28.801Z,37.00
2023-05-19T09:07:55.793Z,37.00
2023-05-19T09:10:23.109Z,37.00
2023-05-19T09:12:50.240Z,37.00
2023-05-19T09:15:18.097Z,37.50
2023-05-19T09:17:47.887Z,37.50
2023-05-19T09:20:17.336Z,37.00
2023-05-19T09:22:45.104Z,37.00
2023-05-19T09:25:19.476Z,38.00
2023-05-19T09:27:47.412Z,38.00
2023-05-19T09:30:15.585Z,37.00
2023-05-19T09:32:43.826Z,38.00
2023-05-19T09:35:12.401Z,38.00
2023-05-19T09:37:40.841Z,37.00
2023-05-19T09:40:12.475Z,37.00
2023-05-19T09:42:42.101Z,37.00
2023-05-19T09:45:09.419Z,37.00
2023-05-19T09:47:38.081Z,38.00
2023-05-19T09:50:09.834Z,37.00
2023-05-19T09:52:39.999Z,37.00
2023-05-19T09:55:10.928Z,36.50
2023-05-19T09:57:39.039Z,37.00
2023-05-19T10:00:11.531Z,37.00
2023-05-19T10:02:42.219Z,37.00
2023-05-19T10:05:12.959Z,38.00
2023-05-19T10:07:41.080Z,38.00
2023-05-19T10:10:13.406Z,38.00
2023-05-19T10:12:41.162Z,37.00
2023-05-19T10:15:10.503Z,37.00
2023-05-19T10:17:42.860Z,38.00
2023-05-19T10:20:17.349Z,37.50
2023-05-19T10:22:46.614Z,37.00
2023-05-19T10:25:14.099Z,38.00
2023-05-19T10:27:44.568Z,37.75
2023-05-19T10:30:16.522Z,37.00
2023-05-19T10:32:46.907Z,37.00
2023-05-19T10:35:28.418Z,37.00
2023-05-19T10:38:24.476Z,37.00
2023-05-19T10:41:10.262Z,37.00
2023-05-19T10:43:39.905Z,38.50
2023-05-19T10:46:07.048Z,39.00
2023-05-19T10:48:35.200Z,38.00
2023-05-19T10:51:02.827Z,38.00
2023-05-19T10:53:33.450Z,38.00
2023-05-19T10:56:02.352Z,38.00
2023-05-19T10:58:50.481Z,39.00
2023-05-19T11:01:19.548Z,39.00
2023-05-19T11:03:56.029Z,41.75
2023-05-19T11:06:29.973Z,39.75
2023-05-19T11:09:10.326Z,45.00
2023-05-19T11:11:52.107Z,40.00
2023-05-19T11:14:21.829Z,39.00
2023-05-19T11:16:50.395Z,38.00
2023-05-19T11:19:27.598Z,38.00
2023-05-19T11:21:55.324Z,38.25
2023-05-19T11:24:46.579Z,39.00
2023-05-19T11:27:33.984Z,38.00
2023-05-19T11:30:02.618Z,38.00
2023-05-19T11:32:31.077Z,38.00
2023-05-19T11:34:58.362Z,38.00
2023-05-19T11:37:25.662Z,38.00
2023-05-19T11:39:53.302Z,38.00
2023-05-19T11:42:20.790Z,38.00
2023-05-19T11:44:49.474Z,39.00
2023-05-19T11:47:17.160Z,39.00
2023-05-19T11:50:04.688Z,39.00
2023-05-19T11:52:32.201Z,39.00
2023-05-19T11:55:02.291Z,39.00
2023-05-19T11:57:29.483Z,38.00
2023-05-19T11:59:56.826Z,39.00
2023-05-19T12:02:25.425Z,39.00
2023-05-19T12:04:52.878Z,38.00
2023-05-19T12:07:24.183Z,38.00
2023-05-19T12:09:52.330Z,37.00
2023-05-19T12:12:20.875Z,39.00
2023-05-19T12:14:50.004Z,38.00
2023-05-19T12:17:21.341Z,38.00
2023-05-19T12:19:49.262Z,45.75
2023-05-19T12:22:18.120Z,41.00
2023-05-19T12:24:47.391Z,40.00
2023-05-19T12:27:23.627Z,39.00
2023-05-19T12:29:51.610Z,38.00
2023-05-19T12:32:18.659Z,38.00
2023-05-19T12:34:45.723Z,38.00
2023-05-19T12:37:13.099Z,38.00
2023-05-19T12:39:42.205Z,37.75
2023-05-19T12:42:10.475Z,39.00
2023-05-19T12:44:49.501Z,39.00
2023-05-19T12:47:17.503Z,39.00
2023-05-19T12:50:00.760Z,39.00
2023-05-19T12:52:29.567Z,39.00
2023-05-19T12:55:00.574Z,38.00
2023-05-19T12:57:28.729Z,37.50
2023-05-19T13:00:00.989Z,38.00
2023-05-19T13:02:28.678Z,37.00
2023-05-19T13:04:55.778Z,38.00
2023-05-19T13:07:25.262Z,37.50
2023-05-19T13:09:54.785Z,37.00
2023-05-19T13:12:21.894Z,37.50
2023-05-19T13:14:48.839Z,37.00
2023-05-19T13:17:15.714Z,38.75
2023-05-19T13:19:43.010Z,44.00
2023-05-19T13:22:10.190Z,42.00
2023-05-19T13:24:37.436Z,39.00
2023-05-19T13:27:06.216Z,41.25
2023-05-19T13:29:33.671Z,41.00
2023-05-19T13:32:01.618Z,42.00
2023-05-19T13:34:29.022Z,40.00
2023-05-19T13:36:56.097Z,39.50
2023-05-19T13:39:25.643Z,40.00
2023-05-19T13:41:52.848Z,39.00
2023-05-19T13:44:19.902Z,42.00
2023-05-19T13:46:48.490Z,41.50
2023-05-19T13:49:17.196Z,41.00
2023-05-19T13:51:44.481Z,41.00
2023-05-19T13:54:11.998Z,41.00
2023-05-19T13:56:39.754Z,39.00
2023-05-19T13:59:07.109Z,40.00
2023-05-19T14:01:34.160Z,38.25
2023-05-19T14:04:01.486Z,38.00
2023-05-19T14:06:28.808Z,37.00
2023-05-19T14:08:55.920Z,38.00
2023-05-19T14:11:23.210Z,40.00
2023-05-19T14:13:52.522Z,39.00
2023-05-19T14:16:20.420Z,40.50
2023-05-19T14:18:47.986Z,39.00
2023-05-19T14:21:15.857Z,39.00
2023-05-19T14:23:43.161Z,39.00
2023-05-19T14:26:10.438Z,39.00
2023-05-19T14:28:37.741Z,38.25
2023-05-19T14:31:04.985Z,38.00
2023-05-19T14:33:35.232Z,37.00
2023-05-19T14:36:02.913Z,39.50
2023-05-19T14:38:32.581Z,40.00
2023-05-19T14:40:59.732Z,40.75
2023-05-19T14:43:27.269Z,39.75
2023-05-19T14:45:55.516Z,38.00
2023-05-19T14:48:22.868Z,37.00
2023-05-19T14:50:50.136Z,37.00
2023-05-19T14:53:17.217Z,40.00
2023-05-19T14:55:44.358Z,39.50
2023-05-19T14:58:26.773Z,39.00
2023-05-19T15:00:57.956Z,38.25
2023-05-19T15:03:25.403Z,38.00
2023-05-19T15:05:52.899Z,39.00
2023-05-19T15:08:20.173Z,38.00
2023-05-19T15:10:51.476Z,39.00
2023-05-19T15:13:18.971Z,40.00
2023-05-19T15:15:46.284Z,38.25
2023-05-19T15:18:13.779Z,38.00
2023-05-19T15:20:41.081Z,37.00
2023-05-19T15:23:08.443Z,37.00
2023-05-19T15:25:35.773Z,38.00
2023-05-19T15:28:03.356Z,37.00
2023-05-19T15:30:30.693Z,37.00
2023-05-19T15:33:00.391Z,37.75
2023-05-19T15:35:27.678Z,38.00
2023-05-19T15:37:54.916Z,38.00
2023-05-19T15:40:22.257Z,37.00
2023-05-19T15:42:49.700Z,37.50
2023-05-19T15:45:17.033Z,36.50
2023-05-19T15:47:44.321Z,37.00
2023-05-19T15:50:11.687Z,37.50
2023-05-19T15:52:39.765Z,38.75
2023-05-19T15:55:08.389Z,39.00
2023-05-19T15:57:35.931Z,38.00
2023-05-19T16:00:03.204Z,37.00
2023-05-19T16:02:32.834Z,38.00
2023-05-19T16:05:00.097Z,37.00
2023-05-19T16:07:27.580Z,38.00
2023-05-19T16:09:55.640Z,38.00
2023-05-19T16:12:23.725Z,37.00
2023-05-19T16:14:51.169Z,37.00
2023-05-19T16:17:18.434Z,37.00
2023-05-19T16:19:45.801Z,37.75
2023-05-19T16:22:13.157Z,37.00
2023-05-19T16:24:40.407Z,36.50
2023-05-19T16:27:07.661Z,36.00
2023-05-19T16:29:34.835Z,36.00
2023-05-19T16:32:02.203Z,36.00
2023-05-19T16:34:30.666Z,36.25
2023-05-19T16:36:58.043Z,37.00
2023-05-19T16:39:25.322Z,36.00
2023-05-19T16:41:52.355Z,37.00
2023-05-19T16:44:19.754Z,37.00
2023-05-19T16:46:47.188Z,37.50
2023-05-19T16:49:14.465Z,40.00
2023-05-19T16:51:42.137Z,39.00
2023-05-19T16:54:11.363Z,37.00
2023-05-19T16:56:38.879Z,37.00
2023-05-19T16:59:08.795Z,38.00
2023-05-19T17:01:37.429Z,38.00
2023-05-19T17:04:05.156Z,37.00
2023-05-19T17:06:32.585Z,37.50
2023-05-19T17:08:59.973Z,37.00
2023-05-19T17:11:27.370Z,35.50
2023-05-19T17:13:55.009Z,36.50
2023-05-19T17:16:24.285Z,36.25
2023-05-19T17:18:52.006Z,36.00
2023-05-19T17:21:19.603Z,37.00
2023-05-19T17:23:46.865Z,38.00
2023-05-19T17:26:14.146Z,37.00
2023-05-19T17:28:41.452Z,36.00
2023-05-19T17:31:15.606Z,36.00
2023-05-19T17:33:42.891Z,37.00
2023-05-19T17:36:10.287Z,37.00
2023-05-19T17:38:37.752Z,37.50
2023-05-19T17:41:05.383Z,36.50
2023-05-19T17:43:32.599Z,37.00
2023-05-19T17:46:01.206Z,36.50
2023-05-19T17:48:28.920Z,36.00
2023-05-19T17:50:56.197Z,36.75
2023-05-19T17:53:23.986Z,37.00
2023-05-19T17:56:01.605Z,36.25
2023-05-19T17:58:29.580Z,37.00
2023-05-19T18:00:57.188Z,37.00
2023-05-19T18:03:25.300Z,36.00
2023-05-19T18:05:54.381Z,36.50
2023-05-19T18:08:24.016Z,36.50
2023-05-19T18:10:51.612Z,36.50
2023-05-19T18:13:19.231Z,37.00
2023-05-19T18:15:47.465Z,37.50
2023-05-19T18:18:20.487Z,37.00
2023-05-19T18:20:48.937Z,36.50
2023-05-19T18:23:16.277Z,36.25
2023-05-19T18:25:49.550Z,37.00
2023-05-19T18:28:16.897Z,37.00
2023-05-19T18:30:44.161Z,36.50
2023-05-19T18:33:12.066Z,38.00
2023-05-19T18:35:40.768Z,37.50
2023-05-19T18:38:08.394Z,36.75
2023-05-19T18:40:35.959Z,37.00
2023-05-19T18:43:03.634Z,36.50
2023-05-19T18:45:31.132Z,37.00
2023-05-19T18:47:58.515Z,38.00
2023-05-19T18:50:26.328Z,38.00
2023-05-19T18:52:53.652Z,37.75
2023-05-19T18:55:21.061Z,37.00
2023-05-19T18:57:48.399Z,36.00
2023-05-19T19:00:15.804Z,36.50
2023-05-19T19:02:43.725Z,37.00
2023-05-19T19:05:13.264Z,36.00
2023-05-19T19:07:46.611Z,36.00
2023-05-19T19:10:16.645Z,36.00
2023-05-19T19:12:47.323Z,36.00
2023-05-19T19:15:34.440Z,36.00
2023-05-19T19:18:01.690Z,37.00
2023-05-19T19:20:28.937Z,36.00
2023-05-19T19:22:56.212Z,36.50
2023-05-19T19:25:23.802Z,37.00
2023-05-19T19:27:54.066Z,35.50
2023-05-19T19:30:21.464Z,36.00
2023-05-19T19:32:51.309Z,36.00
2023-05-19T19:35:22.258Z,34.50
2023-05-19T19:37:50.047Z,34.50
2023-05-19T19:40:17.219Z,35.00
2023-05-19T19:42:44.254Z,35.75
2023-05-19T19:45:14.744Z,36.00
2023-05-19T19:47:43.380Z,34.50
2023-05-19T19:50:11.445Z,34.75
2023-05-19T19:52:38.936Z,35.00
2023-05-19T19:55:06.535Z,35.00
2023-05-19T19:57:33.660Z,35.00
2023-05-19T20:00:00.987Z,35.00
2023-05-19T20:02:28.208Z,35.00
2023-05-19T20:04:55.229Z,36.00
2023-05-19T20:07:22.236Z,36.00
2023-05-19T20:09:49.271Z,36.00
2023-05-19T20:12:16.481Z,36.00
2023-05-19T20:14:43.513Z,36.00
2023-05-19T20:17:10.489Z,35.00
2023-05-19T20:19:37.573Z,34.75
2023-05-19T20:22:04.870Z,36.00
2023-05-19T20:24:31.760Z,35.00
2023-05-19T20:26:58.751Z,35.00
2023-05-19T20:29:25.674Z,35.00
2023-05-19T20:31:53.647Z,34.00
2023-05-19T20:34:21.996Z,34.00
2023-05-19T20:36:49.023Z,34.00
2023-05-19T20:39:16.037Z,36.00
2023-05-19T20:41:43.204Z,34.00
2023-05-19T20:44:10.064Z,35.00
2023-05-19T20:46:37.016Z,35.00
2023-05-19T20:49:03.952Z,34.00
2023-05-19T20:51:31.096Z,35.00
2023-05-19T20:53:58.011Z,34.00
2023-05-19T20:56:24.974Z,34.50
2023-05-19T20:58:51.880Z,34.00
2023-05-19T21:01:18.893Z,33.00
2023-05-19T21:03:45.780Z,33.00
2023-05-19T21:06:12.772Z,34.00
2023-05-19T21:08:39.627Z,34.00
2023-05-19T21:11:06.657Z,34.50
2023-05-19T21:13:33.875Z,35.00
2023-05-19T21:16:00.893Z,34.50
2023-05-19T21:18:27.821Z,34.00
2023-05-19T21:20:54.820Z,33.75
2023-05-19T21:23:22.954Z,34.25
2023-05-19T21:25:50.639Z,34.00
2023-05-19T21:28:17.554Z,34.00
2023-05-19T21:30:48.440Z,33.50
2023-05-19T21:33:15.419Z,33.25
2023-05-19T21:35:42.412Z,34.00
2023-05-19T21:38:22.632Z,33.00
2023-05-19T21:40:50.684Z,33.50
2023-05-19T21:43:17.632Z,34.00
2023-05-19T21:45:45.298Z,34.00
2023-05-19T21:48:12.306Z,34.00
2023-05-19T21:50:39.334Z,34.00
2023-05-19T21:53:06.222Z,34.00
2023-05-19T21:55:33.366Z,34.00
2023-05-19T21:58:02.402Z,34.00
2023-05-19T22:00:29.828Z,35.00
2023-05-19T22:02:56.887Z,34.00
2023-05-19T22:05:24.056Z,34.00
2023-05-19T22:07:51.117Z,34.00
2023-05-19T22:10:18.213Z,34.00
2023-05-19T22:12:45.182Z,34.00
2023-05-19T22:15:12.240Z,33.00
2023-05-19T22:17:39.467Z,32.00
2023-05-19T22:20:07.162Z,32.00
2023-05-19T22:22:34.622Z,33.50
2023-05-19T22:25:03.325Z,33.00
2023-05-19T22:27:30.273Z,32.00
2023-05-19T22:29:57.251Z,32.00
2023-05-19T22:32:24.403Z,33.00
2023-05-19T22:34:51.629Z,32.50
2023-05-19T22:37:18.576Z,33.00
2023-05-19T22:39:45.643Z,33.00
2023-05-19T22:42:12.576Z,32.00
2023-05-19T22:44:39.578Z,32.50
2023-05-19T22:47:06.606Z,33.00
2023-05-19T22:49:33.619Z,32.00
2023-05-19T22:52:00.493Z,32.50
2023-05-19T22:54:27.499Z,33.00
2023-05-19T22:56:54.510Z,32.00
2023-05-19T22:59:21.472Z,32.00
2023-05-19T23:01:48.410Z,32.50
2023-05-19T23:04:15.575Z,33.00
2023-05-19T23:06:42.516Z,32.00
2023-05-19T23:09:09.496Z,32.00
2023-05-19T23:11:36.574Z,32.00
2023-05-19T23:14:03.672Z,31.00
2023-05-19T23:16:30.624Z,31.00
2023-05-19T23:18:57.730Z,31.00
2023-05-19T23:21:24.739Z,31.50
2023-05-19T23:23:51.865Z,32.00
2023-05-19T23:26:18.774Z,30.50
2023-05-19T23:28:45.708Z,31.00
2023-05-19T23:31:12.631Z,32.00
2023-05-19T23:33:39.655Z,32.00
2023-05-19T23:36:08.164Z,32.00
2023-05-19T23:38:36.517Z,32.00
2023-05-19T23:41:04.117Z,32.00
2023-05-19T23:43:31.457Z,32.00
2023-05-19T23:45:59.021Z,31.50
2023-05-19T23:48:26.921Z,31.00
2023-05-19T23:50:53.808Z,32.00
2023-05-19T23:53:20.857Z,30.00
2023-05-19T23:55:47.825Z,31.00
2023-05-19T23:58:14.736Z,31.00
